sensor_id;sensor_type;location;lat;lon;timestamp;temperature;humidity
25108;DHT22;13090;53.422;7.670;2022-12-24T00:02:12;8.50;93.40
25108;DHT22;13090;53.422;7.670;2022-12-24T00:07:15;8.50;93.30
25108;DHT22;13090;53.422;7.670;2022-12-24T00:12:17;8.60;93.30
25108;DHT22;13090;53.422;7.670;2022-12-24T00:17:20;8.50;93.30
25108;DHT22;13090;53.422;7.670;2022-12-24T00:22:23;8.60;93.30
25108;DHT22;13090;53.422;7.670;2022-12-24T00:27:25;8.60;93.20
25108;DHT22;13090;53.422;7.670;2022-12-24T00:32:28;8.60;93.20
25108;DHT22;13090;53.422;7.670;2022-12-24T00:37:31;8.60;93.20
25108;DHT22;13090;53.422;7.670;2022-12-24T00:42:34;8.60;93.20
25108;DHT22;13090;53.422;7.670;2022-12-24T00:47:36;8.60;93.10
25108;DHT22;13090;53.422;7.670;2022-12-24T00:52:39;8.60;93.10
25108;DHT22;13090;53.422;7.670;2022-12-24T00:57:42;8.70;93.20
25108;DHT22;13090;53.422;7.670;2022-12-24T01:02:44;8.70;93.10
25108;DHT22;13090;53.422;7.670;2022-12-24T01:07:48;8.60;93.10
25108;DHT22;13090;53.422;7.670;2022-12-24T01:12:50;8.70;93.10
25108;DHT22;13090;53.422;7.670;2022-12-24T01:17:52;8.60;93.10
25108;DHT22;13090;53.422;7.670;2022-12-24T01:22:56;8.60;93.00
25108;DHT22;13090;53.422;7.670;2022-12-24T01:27:58;8.60;93.10
25108;DHT22;13090;53.422;7.670;2022-12-24T01:33:00;8.60;93.10
25108;DHT22;13090;53.422;7.670;2022-12-24T01:38:03;8.60;93.20
25108;DHT22;13090;53.422;7.670;2022-12-24T01:43:15;8.60;93.20
25108;DHT22;13090;53.422;7.670;2022-12-24T01:48:36;8.60;93.30
25108;DHT22;13090;53.422;7.670;2022-12-24T01:53:44;8.60;93.40
25108;DHT22;13090;53.422;7.670;2022-12-24T01:58:52;8.60;93.30
25108;DHT22;13090;53.422;7.670;2022-12-24T02:03:56;8.60;93.30
25108;DHT22;13090;53.422;7.670;2022-12-24T02:08:59;8.60;93.30
25108;DHT22;13090;53.422;7.670;2022-12-24T02:14:02;8.60;93.20
25108;DHT22;13090;53.422;7.670;2022-12-24T02:25:02;8.60;93.30
25108;DHT22;13090;53.422;7.670;2022-12-24T02:30:14;8.60;93.30
25108;DHT22;13090;53.422;7.670;2022-12-24T02:35:22;8.50;93.30
25108;DHT22;13090;53.422;7.670;2022-12-24T02:40:29;8.50;93.40
25108;DHT22;13090;53.422;7.670;2022-12-24T02:45:35;8.50;93.30
25108;DHT22;13090;53.422;7.670;2022-12-24T02:50:39;8.50;93.40
25108;DHT22;13090;53.422;7.670;2022-12-24T03:01:40;8.50;93.40
25108;DHT22;13090;53.422;7.670;2022-12-24T03:06:50;8.50;93.40
25108;DHT22;13090;53.422;7.670;2022-12-24T03:11:59;8.50;93.40
25108;DHT22;13090;53.422;7.670;2022-12-24T03:17:04;8.50;93.40
25108;DHT22;13090;53.422;7.670;2022-12-24T03:22:10;8.50;93.40
25108;DHT22;13090;53.422;7.670;2022-12-24T03:27:13;8.50;93.40
25108;DHT22;13090;53.422;7.670;2022-12-24T03:32:23;8.50;93.40
25108;DHT22;13090;53.422;7.670;2022-12-24T03:37:26;8.50;93.50
25108;DHT22;13090;53.422;7.670;2022-12-24T03:42:28;8.50;93.50
25108;DHT22;13090;53.422;7.670;2022-12-24T03:47:31;8.50;93.50
25108;DHT22;13090;53.422;7.670;2022-12-24T03:52:33;8.50;93.50
25108;DHT22;13090;53.422;7.670;2022-12-24T03:57:35;8.50;93.60
25108;DHT22;13090;53.422;7.670;2022-12-24T04:02:39;8.40;93.60
25108;DHT22;13090;53.422;7.670;2022-12-24T04:07:42;8.50;93.60
25108;DHT22;13090;53.422;7.670;2022-12-24T04:12:45;8.50;93.60
25108;DHT22;13090;53.422;7.670;2022-12-24T04:17:48;8.60;93.60
25108;DHT22;13090;53.422;7.670;2022-12-24T04:22:52;8.70;93.50
25108;DHT22;13090;53.422;7.670;2022-12-24T04:27:54;8.70;93.40
25108;DHT22;13090;53.422;7.670;2022-12-24T04:32:57;8.70;93.40
25108;DHT22;13090;53.422;7.670;2022-12-24T04:37:59;8.80;93.40
25108;DHT22;13090;53.422;7.670;2022-12-24T04:43:01;8.80;93.40
25108;DHT22;13090;53.422;7.670;2022-12-24T04:48:05;8.90;93.40
25108;DHT22;13090;53.422;7.670;2022-12-24T04:53:07;8.90;93.30
25108;DHT22;13090;53.422;7.670;2022-12-24T04:58:09;9.00;93.30
25108;DHT22;13090;53.422;7.670;2022-12-24T05:03:13;9.10;93.30
25108;DHT22;13090;53.422;7.670;2022-12-24T05:08:15;9.10;93.30
25108;DHT22;13090;53.422;7.670;2022-12-24T05:13:17;9.20;93.30
25108;DHT22;13090;53.422;7.670;2022-12-24T05:18:21;9.20;93.20
25108;DHT22;13090;53.422;7.670;2022-12-24T05:23:25;9.20;93.10
25108;DHT22;13090;53.422;7.670;2022-12-24T05:28:27;9.20;93.10
25108;DHT22;13090;53.422;7.670;2022-12-24T05:33:30;9.30;93.20
25108;DHT22;13090;53.422;7.670;2022-12-24T05:38:33;9.40;93.20
25108;DHT22;13090;53.422;7.670;2022-12-24T05:43:35;9.40;93.10
25108;DHT22;13090;53.422;7.670;2022-12-24T05:48:39;9.40;93.00
25108;DHT22;13090;53.422;7.670;2022-12-24T05:53:41;9.40;93.00
25108;DHT22;13090;53.422;7.670;2022-12-24T05:58:44;9.40;93.00
25108;DHT22;13090;53.422;7.670;2022-12-24T06:03:47;9.50;93.00
25108;DHT22;13090;53.422;7.670;2022-12-24T06:08:51;9.50;93.00
25108;DHT22;13090;53.422;7.670;2022-12-24T06:13:54;9.50;93.00
25108;DHT22;13090;53.422;7.670;2022-12-24T06:18:58;9.60;93.10
25108;DHT22;13090;53.422;7.670;2022-12-24T06:24:00;9.60;93.10
25108;DHT22;13090;53.422;7.670;2022-12-24T06:29:03;9.60;93.10
25108;DHT22;13090;53.422;7.670;2022-12-24T06:34:06;9.70;93.10
25108;DHT22;13090;53.422;7.670;2022-12-24T06:39:09;9.70;93.00
25108;DHT22;13090;53.422;7.670;2022-12-24T06:44:11;9.80;93.00
25108;DHT22;13090;53.422;7.670;2022-12-24T06:49:14;9.80;93.00
25108;DHT22;13090;53.422;7.670;2022-12-24T06:54:16;9.80;93.00
25108;DHT22;13090;53.422;7.670;2022-12-24T06:59:19;9.80;93.00
25108;DHT22;13090;53.422;7.670;2022-12-24T07:04:22;9.90;93.00
25108;DHT22;13090;53.422;7.670;2022-12-24T07:09:25;9.90;93.00
25108;DHT22;13090;53.422;7.670;2022-12-24T07:14:27;9.90;93.00
25108;DHT22;13090;53.422;7.670;2022-12-24T07:19:30;9.90;93.00
25108;DHT22;13090;53.422;7.670;2022-12-24T07:24:32;9.90;93.00
25108;DHT22;13090;53.422;7.670;2022-12-24T07:29:35;10.00;93.00
25108;DHT22;13090;53.422;7.670;2022-12-24T07:34:38;10.00;93.00
25108;DHT22;13090;53.422;7.670;2022-12-24T07:39:41;9.90;92.90
25108;DHT22;13090;53.422;7.670;2022-12-24T07:44:43;9.90;92.90
25108;DHT22;13090;53.422;7.670;2022-12-24T07:49:46;9.90;93.00
25108;DHT22;13090;53.422;7.670;2022-12-24T07:54:48;10.00;93.10
25108;DHT22;13090;53.422;7.670;2022-12-24T07:59:51;10.00;93.20
25108;DHT22;13090;53.422;7.670;2022-12-24T08:04:54;10.10;93.20
25108;DHT22;13090;53.422;7.670;2022-12-24T08:09:58;10.20;93.20
25108;DHT22;13090;53.422;7.670;2022-12-24T08:15:00;10.30;93.20
25108;DHT22;13090;53.422;7.670;2022-12-24T08:20:05;10.30;93.20
25108;DHT22;13090;53.422;7.670;2022-12-24T08:25:08;10.40;93.20
25108;DHT22;13090;53.422;7.670;2022-12-24T08:30:11;10.50;93.20
25108;DHT22;13090;53.422;7.670;2022-12-24T08:35:23;10.60;93.20
25108;DHT22;13090;53.422;7.670;2022-12-24T08:40:25;10.60;93.20
25108;DHT22;13090;53.422;7.670;2022-12-24T08:45:27;10.70;93.20
25108;DHT22;13090;53.422;7.670;2022-12-24T08:50:39;10.80;93.20
25108;DHT22;13090;53.422;7.670;2022-12-24T08:55:42;10.80;93.10
25108;DHT22;13090;53.422;7.670;2022-12-24T09:00:44;10.90;93.10
25108;DHT22;13090;53.422;7.670;2022-12-24T09:05:47;10.90;93.10
25108;DHT22;13090;53.422;7.670;2022-12-24T09:10:49;10.90;93.10
25108;DHT22;13090;53.422;7.670;2022-12-24T09:15:52;11.00;93.10
25108;DHT22;13090;53.422;7.670;2022-12-24T09:20:59;11.00;93.00
25108;DHT22;13090;53.422;7.670;2022-12-24T09:26:04;11.10;93.10
25108;DHT22;13090;53.422;7.670;2022-12-24T09:31:08;11.10;93.00
25108;DHT22;13090;53.422;7.670;2022-12-24T09:36:11;11.10;93.00
25108;DHT22;13090;53.422;7.670;2022-12-24T09:41:16;11.20;93.00
25108;DHT22;13090;53.422;7.670;2022-12-24T09:46:29;11.20;93.00
25108;DHT22;13090;53.422;7.670;2022-12-24T09:51:38;11.30;93.00
25108;DHT22;13090;53.422;7.670;2022-12-24T09:56:43;11.30;93.00
25108;DHT22;13090;53.422;7.670;2022-12-24T10:01:48;11.40;93.00
25108;DHT22;13090;53.422;7.670;2022-12-24T10:06:59;11.40;93.00
25108;DHT22;13090;53.422;7.670;2022-12-24T10:12:08;11.50;93.10
25108;DHT22;13090;53.422;7.670;2022-12-24T10:17:26;11.60;93.50
25108;DHT22;13090;53.422;7.670;2022-12-24T10:22:36;11.70;93.00
25108;DHT22;13090;53.422;7.670;2022-12-24T10:27:43;11.80;92.90
25108;DHT22;13090;53.422;7.670;2022-12-24T10:32:48;11.80;92.80
25108;DHT22;13090;53.422;7.670;2022-12-24T10:37:52;11.80;92.90
25108;DHT22;13090;53.422;7.670;2022-12-24T10:42:54;11.90;92.90
25108;DHT22;13090;53.422;7.670;2022-12-24T10:47:59;12.00;92.90
25108;DHT22;13090;53.422;7.670;2022-12-24T10:53:13;12.10;92.90
25108;DHT22;13090;53.422;7.670;2022-12-24T10:58:19;12.10;92.80
25108;DHT22;13090;53.422;7.670;2022-12-24T11:03:27;12.20;92.80
25108;DHT22;13090;53.422;7.670;2022-12-24T11:08:31;12.30;92.70
25108;DHT22;13090;53.422;7.670;2022-12-24T11:13:36;12.30;92.70
25108;DHT22;13090;53.422;7.670;2022-12-24T11:18:44;12.40;92.80
25108;DHT22;13090;53.422;7.670;2022-12-24T11:23:55;12.50;92.80
25108;DHT22;13090;53.422;7.670;2022-12-24T11:29:05;12.50;92.70
25108;DHT22;13090;53.422;7.670;2022-12-24T11:34:33;12.60;92.60
25108;DHT22;13090;53.422;7.670;2022-12-24T11:39:40;12.60;92.60
25108;DHT22;13090;53.422;7.670;2022-12-24T11:44:47;12.70;92.50
25108;DHT22;13090;53.422;7.670;2022-12-24T11:49:50;12.70;92.40
25108;DHT22;13090;53.422;7.670;2022-12-24T11:55:15;12.70;92.40
25108;DHT22;13090;53.422;7.670;2022-12-24T12:00:18;12.70;92.30
25108;DHT22;13090;53.422;7.670;2022-12-24T12:05:24;12.60;92.40
25108;DHT22;13090;53.422;7.670;2022-12-24T12:10:31;12.70;92.40
25108;DHT22;13090;53.422;7.670;2022-12-24T12:15:40;12.70;92.40
25108;DHT22;13090;53.422;7.670;2022-12-24T12:20:44;12.70;92.30
25108;DHT22;13090;53.422;7.670;2022-12-24T12:25:52;12.70;92.30
25108;DHT22;13090;53.422;7.670;2022-12-24T12:31:05;12.70;92.20
25108;DHT22;13090;53.422;7.670;2022-12-24T12:36:22;12.60;92.30
25108;DHT22;13090;53.422;7.670;2022-12-24T12:41:44;12.70;92.30
25108;DHT22;13090;53.422;7.670;2022-12-24T12:47:03;12.70;92.30
25108;DHT22;13090;53.422;7.670;2022-12-24T12:52:15;12.70;92.40
25108;DHT22;13090;53.422;7.670;2022-12-24T12:57:25;12.70;92.50
25108;DHT22;13090;53.422;7.670;2022-12-24T13:02:49;12.70;92.40
25108;DHT22;13090;53.422;7.670;2022-12-24T13:08:10;12.80;92.30
25108;DHT22;13090;53.422;7.670;2022-12-24T13:13:42;12.80;92.30
25108;DHT22;13090;53.422;7.670;2022-12-24T13:19:04;12.80;92.20
25108;DHT22;13090;53.422;7.670;2022-12-24T13:24:14;12.80;92.30
25108;DHT22;13090;53.422;7.670;2022-12-24T13:29:40;12.80;92.30
25108;DHT22;13090;53.422;7.670;2022-12-24T13:34:47;12.90;92.20
25108;DHT22;13090;53.422;7.670;2022-12-24T13:40:13;12.90;92.10
25108;DHT22;13090;53.422;7.670;2022-12-24T13:45:41;12.90;91.90
25108;DHT22;13090;53.422;7.670;2022-12-24T13:50:47;12.80;91.80
25108;DHT22;13090;53.422;7.670;2022-12-24T13:55:51;12.70;91.90
25108;DHT22;13090;53.422;7.670;2022-12-24T14:00:59;12.70;91.90
25108;DHT22;13090;53.422;7.670;2022-12-24T14:06:02;12.60;91.90
25108;DHT22;13090;53.422;7.670;2022-12-24T14:11:09;12.60;91.90
25108;DHT22;13090;53.422;7.670;2022-12-24T14:16:14;12.50;91.90
25108;DHT22;13090;53.422;7.670;2022-12-24T14:21:24;12.50;91.90
25108;DHT22;13090;53.422;7.670;2022-12-24T14:26:30;12.50;91.90
25108;DHT22;13090;53.422;7.670;2022-12-24T14:31:34;12.40;91.90
25108;DHT22;13090;53.422;7.670;2022-12-24T14:36:37;12.40;91.90
25108;DHT22;13090;53.422;7.670;2022-12-24T14:41:46;12.30;91.80
25108;DHT22;13090;53.422;7.670;2022-12-24T14:46:55;12.30;91.80
25108;DHT22;13090;53.422;7.670;2022-12-24T14:52:04;12.20;91.90
25108;DHT22;13090;53.422;7.670;2022-12-24T14:57:20;12.20;91.90
25108;DHT22;13090;53.422;7.670;2022-12-24T15:02:29;12.20;91.90
25108;DHT22;13090;53.422;7.670;2022-12-24T15:07:38;12.10;91.90
25108;DHT22;13090;53.422;7.670;2022-12-24T15:12:48;12.10;91.90
25108;DHT22;13090;53.422;7.670;2022-12-24T15:17:52;12.00;91.90
25108;DHT22;13090;53.422;7.670;2022-12-24T15:22:57;12.00;92.00
25108;DHT22;13090;53.422;7.670;2022-12-24T15:28:00;12.00;92.00
25108;DHT22;13090;53.422;7.670;2022-12-24T15:33:03;12.00;92.00
25108;DHT22;13090;53.422;7.670;2022-12-24T15:38:05;12.00;92.00
25108;DHT22;13090;53.422;7.670;2022-12-24T15:43:18;12.00;92.00
25108;DHT22;13090;53.422;7.670;2022-12-24T15:48:24;12.00;92.00
25108;DHT22;13090;53.422;7.670;2022-12-24T15:53:29;11.90;92.00
25108;DHT22;13090;53.422;7.670;2022-12-24T15:58:35;11.90;92.00
25108;DHT22;13090;53.422;7.670;2022-12-24T16:03:52;11.90;92.00
25108;DHT22;13090;53.422;7.670;2022-12-24T16:08:55;11.90;92.00
25108;DHT22;13090;53.422;7.670;2022-12-24T16:14:01;11.90;91.90
25108;DHT22;13090;53.422;7.670;2022-12-24T16:19:06;11.80;91.90
25108;DHT22;13090;53.422;7.670;2022-12-24T16:24:14;11.80;91.90
25108;DHT22;13090;53.422;7.670;2022-12-24T16:29:19;11.70;91.90
25108;DHT22;13090;53.422;7.670;2022-12-24T16:34:24;11.70;91.90
25108;DHT22;13090;53.422;7.670;2022-12-24T16:39:29;11.70;91.90
25108;DHT22;13090;53.422;7.670;2022-12-24T16:44:32;11.60;91.90
25108;DHT22;13090;53.422;7.670;2022-12-24T16:49:36;11.60;91.90
25108;DHT22;13090;53.422;7.670;2022-12-24T16:54:39;11.60;91.80
25108;DHT22;13090;53.422;7.670;2022-12-24T16:59:41;11.60;91.70
25108;DHT22;13090;53.422;7.670;2022-12-24T17:04:45;11.50;91.70
25108;DHT22;13090;53.422;7.670;2022-12-24T17:09:47;11.50;91.70
25108;DHT22;13090;53.422;7.670;2022-12-24T17:14:50;11.50;91.70
25108;DHT22;13090;53.422;7.670;2022-12-24T17:19:54;11.40;91.70
25108;DHT22;13090;53.422;7.670;2022-12-24T17:24:56;11.40;91.80
25108;DHT22;13090;53.422;7.670;2022-12-24T17:29:58;11.40;91.80
25108;DHT22;13090;53.422;7.670;2022-12-24T17:35:02;11.40;91.80
25108;DHT22;13090;53.422;7.670;2022-12-24T17:40:06;11.40;91.80
25108;DHT22;13090;53.422;7.670;2022-12-24T17:45:11;11.40;91.80
25108;DHT22;13090;53.422;7.670;2022-12-24T17:50:14;11.40;91.70
25108;DHT22;13090;53.422;7.670;2022-12-24T17:55:17;11.30;91.50
25108;DHT22;13090;53.422;7.670;2022-12-24T18:00:19;11.20;91.30
25108;DHT22;13090;53.422;7.670;2022-12-24T18:05:23;11.10;91.30
25108;DHT22;13090;53.422;7.670;2022-12-24T18:10:25;10.90;91.30
25108;DHT22;13090;53.422;7.670;2022-12-24T18:15:27;10.80;91.30
25108;DHT22;13090;53.422;7.670;2022-12-24T18:20:33;10.60;91.30
25108;DHT22;13090;53.422;7.670;2022-12-24T18:25:42;10.50;91.30
25108;DHT22;13090;53.422;7.670;2022-12-24T18:30:44;10.30;91.30
25108;DHT22;13090;53.422;7.670;2022-12-24T18:35:47;10.20;91.40
25108;DHT22;13090;53.422;7.670;2022-12-24T18:40:49;10.10;91.40
25108;DHT22;13090;53.422;7.670;2022-12-24T18:45:52;10.00;91.50
25108;DHT22;13090;53.422;7.670;2022-12-24T18:50:56;9.80;91.50
25108;DHT22;13090;53.422;7.670;2022-12-24T18:56:02;9.70;91.50
25108;DHT22;13090;53.422;7.670;2022-12-24T19:01:10;9.60;91.60
25108;DHT22;13090;53.422;7.670;2022-12-24T19:06:14;9.50;91.60
25108;DHT22;13090;53.422;7.670;2022-12-24T19:11:17;9.50;91.60
25108;DHT22;13090;53.422;7.670;2022-12-24T19:16:19;9.40;91.70
25108;DHT22;13090;53.422;7.670;2022-12-24T19:21:24;9.30;91.80
25108;DHT22;13090;53.422;7.670;2022-12-24T19:26:26;9.30;91.90
25108;DHT22;13090;53.422;7.670;2022-12-24T19:31:28;9.20;92.00
25108;DHT22;13090;53.422;7.670;2022-12-24T19:36:32;9.20;92.00
25108;DHT22;13090;53.422;7.670;2022-12-24T19:41:34;9.20;92.00
25108;DHT22;13090;53.422;7.670;2022-12-24T19:46:36;9.10;92.00
25108;DHT22;13090;53.422;7.670;2022-12-24T19:51:40;9.10;92.00
25108;DHT22;13090;53.422;7.670;2022-12-24T19:56:42;9.00;92.00
25108;DHT22;13090;53.422;7.670;2022-12-24T20:01:44;9.00;92.00
25108;DHT22;13090;53.422;7.670;2022-12-24T20:06:48;8.90;92.00
25108;DHT22;13090;53.422;7.670;2022-12-24T20:11:55;8.90;92.00
25108;DHT22;13090;53.422;7.670;2022-12-24T20:16:57;8.80;92.10
25108;DHT22;13090;53.422;7.670;2022-12-24T20:22:01;8.80;92.10
25108;DHT22;13090;53.422;7.670;2022-12-24T20:27:03;8.70;92.20
25108;DHT22;13090;53.422;7.670;2022-12-24T20:32:07;8.70;92.20
25108;DHT22;13090;53.422;7.670;2022-12-24T20:37:11;8.70;92.20
25108;DHT22;13090;53.422;7.670;2022-12-24T20:42:14;8.60;92.30
25108;DHT22;13090;53.422;7.670;2022-12-24T20:47:16;8.60;92.30
25108;DHT22;13090;53.422;7.670;2022-12-24T20:52:20;8.60;92.40
25108;DHT22;13090;53.422;7.670;2022-12-24T20:57:22;8.60;92.40
25108;DHT22;13090;53.422;7.670;2022-12-24T21:02:31;8.60;92.30
25108;DHT22;13090;53.422;7.670;2022-12-24T21:07:35;8.60;92.30
25108;DHT22;13090;53.422;7.670;2022-12-24T21:12:37;8.50;92.30
25108;DHT22;13090;53.422;7.670;2022-12-24T21:17:39;8.50;92.30
25108;DHT22;13090;53.422;7.670;2022-12-24T21:22:43;8.50;92.30
25108;DHT22;13090;53.422;7.670;2022-12-24T21:27:45;8.40;92.30
25108;DHT22;13090;53.422;7.670;2022-12-24T21:32:47;8.40;92.40
25108;DHT22;13090;53.422;7.670;2022-12-24T21:37:51;8.30;92.30
25108;DHT22;13090;53.422;7.670;2022-12-24T21:42:53;8.30;92.40
25108;DHT22;13090;53.422;7.670;2022-12-24T21:47:55;8.20;92.40
25108;DHT22;13090;53.422;7.670;2022-12-24T21:52:59;8.20;92.40
25108;DHT22;13090;53.422;7.670;2022-12-24T21:58:01;8.20;92.50
25108;DHT22;13090;53.422;7.670;2022-12-24T22:03:03;8.10;92.50
25108;DHT22;13090;53.422;7.670;2022-12-24T22:08:08;8.10;92.50
25108;DHT22;13090;53.422;7.670;2022-12-24T22:13:10;8.10;92.50
25108;DHT22;13090;53.422;7.670;2022-12-24T22:18:14;8.00;92.50
25108;DHT22;13090;53.422;7.670;2022-12-24T22:23:18;7.90;92.50
25108;DHT22;13090;53.422;7.670;2022-12-24T22:28:20;7.90;92.50
25108;DHT22;13090;53.422;7.670;2022-12-24T22:33:24;7.80;92.40
25108;DHT22;13090;53.422;7.670;2022-12-24T22:38:27;7.70;92.50
25108;DHT22;13090;53.422;7.670;2022-12-24T22:43:30;7.70;92.60
25108;DHT22;13090;53.422;7.670;2022-12-24T22:48:33;7.60;92.70
25108;DHT22;13090;53.422;7.670;2022-12-24T22:53:37;7.60;92.60
25108;DHT22;13090;53.422;7.670;2022-12-24T22:58:40;7.60;92.60
25108;DHT22;13090;53.422;7.670;2022-12-24T23:03:42;7.60;92.60
25108;DHT22;13090;53.422;7.670;2022-12-24T23:08:46;7.50;92.80
25108;DHT22;13090;53.422;7.670;2022-12-24T23:13:48;7.60;93.10
25108;DHT22;13090;53.422;7.670;2022-12-24T23:18:50;7.70;93.10
25108;DHT22;13090;53.422;7.670;2022-12-24T23:23:55;7.80;93.10
25108;DHT22;13090;53.422;7.670;2022-12-24T23:28:57;7.80;93.00
25108;DHT22;13090;53.422;7.670;2022-12-24T23:34:00;7.80;93.00
25108;DHT22;13090;53.422;7.670;2022-12-24T23:39:04;7.90;93.10
25108;DHT22;13090;53.422;7.670;2022-12-24T23:44:06;8.00;93.20
25108;DHT22;13090;53.422;7.670;2022-12-24T23:49:12;8.00;93.10
25108;DHT22;13090;53.422;7.670;2022-12-24T23:54:15;8.10;92.90
25108;DHT22;13090;53.422;7.670;2022-12-24T23:59:17;8.00;92.80
